Spabunker 51 — ECNA — position and weather

sailwx.info

Track history (hours):
 
Tides and Currents Weather Stations Pressure Air Temp Water Temp Dewpoint Dewpoint Depression Visibility Wind Speed Wind Dir Waves Ship Positions

Spabunker 51

Last reported at 2015-Mar-31 21:33 UTC. Time now 2015-Mar-31 22:00 UTC.
Position N 36°09' W 005°26'.

Length 84 m; draft 5.8 m.

Type: Ship (hazmat cat A). MMSI: 224322240.

Date/timePositionNaut miles runAvg speedWind from/ knotsBaromVisibWave heightAir tempDewpointWater temp
2015-Mar-31 21:33N 36°09' W 005°26'0 0.0
2015-Mar-31 20:33N 36°09' W 005°26'0 0.0
2015-Mar-31 19:33N 36°09' W 005°26'0 0.0
2015-Mar-31 18:33N 36°09' W 005°26'0 0.0
2015-Mar-31 17:33N 36°09' W 005°26'0 0.3
2015-Mar-31 16:33N 36°09' W 005°26'0 0.0
2015-Mar-31 15:30N 36°09' W 005°26'0 0.0
2015-Mar-31 14:26N 36°09' W 005°26'2 2.2
2015-Mar-31 13:19N 36°11' W 005°24'0 0.0
2015-Mar-31 10:22N 36°11' W 005°24'0 0.0
2015-Mar-31 08:16N 36°11' W 005°24'0 0.0
2015-Mar-31 07:32N 36°11' W 005°24'0 0.0
2015-Mar-31 06:33N 36°11' W 005°24'0 0.0
2015-Mar-31 05:33N 36°11' W 005°24'3 3.1
2015-Mar-31 04:33N 36°08' W 005°26'0 0.0
2015-Mar-31 03:33N 36°08' W 005°26'0 0.0
2015-Mar-31 02:33N 36°08' W 005°26'0 0.0
2015-Mar-31 01:27N 36°08' W 005°26'0 0.0
2015-Mar-31 00:33N 36°08' W 005°26'0 0.0
2015-Mar-30 23:33N 36°08' W 005°26'0 0.0
2015-Mar-30 22:33N 36°08' W 005°26'0 0.0
2015-Mar-30 21:33N 36°08' W 005°26'0 0.0
2015-Mar-30 20:33N 36°08' W 005°26'0 0.0
2015-Mar-30 19:33N 36°08' W 005°26'0 0.0
2015-Mar-30 18:33N 36°08' W 005°26'0 0.0
2015-Mar-30 17:33N 36°08' W 005°26'0 0.0
2015-Mar-30 16:33N 36°08' W 005°26'0 0.0
2015-Mar-30 15:32N 36°08' W 005°26'0 0.0
2015-Mar-30 14:33N 36°08' W 005°26'0 0.0
2015-Mar-30 13:33N 36°08' W 005°26'1 0.7
2015-Mar-30 12:33N 36°09' W 005°26'0 0.0
2015-Mar-30 11:33N 36°09' W 005°26'0 0.0
2015-Mar-30 08:33N 36°09' W 005°26'0 0.0
2015-Mar-30 07:33N 36°09' W 005°26'0 0.0
2015-Mar-30 06:33N 36°09' W 005°26'1 1.3
2015-Mar-30 05:31N 36°10' W 005°25'1 0.2
2015-Mar-29 23:28N 36°11' W 005°24'2 2.5
2015-Mar-29 22:30N 36°09' W 005°26'1 0.5
2015-Mar-29 21:33N 36°09' W 005°26'0 0.0
2015-Mar-29 20:33N 36°09' W 005°26'0 0.0
2015-Mar-29 19:28N 36°09' W 005°26'0 0.0
2015-Mar-29 18:33N 36°09' W 005°26'0 0.0
2015-Mar-29 17:31N 36°09' W 005°26'0 0.0
2015-Mar-29 16:33N 36°09' W 005°26'0 0.0
2015-Mar-29 15:32N 36°09' W 005°26'0 0.0
2015-Mar-29 14:29N 36°09' W 005°26'0 0.0
2015-Mar-29 13:33N 36°09' W 005°26'0 0.0
2015-Mar-29 12:33N 36°09' W 005°26'0 0.1
2015-Mar-29 11:33N 36°09' W 005°26'0 0.1
2015-Mar-29 09:10N 36°09' W 005°26'0 0.0
2015-Mar-29 08:26N 36°09' W 005°26'0 0.0
2015-Mar-29 07:16N 36°09' W 005°26'0 0.0
2015-Mar-29 06:33N 36°09' W 005°26'0 0.0
2015-Mar-29 05:22N 36°09' W 005°26'0 0.0
2015-Mar-29 04:33N 36°09' W 005°26'0 0.0
2015-Mar-29 03:33N 36°09' W 005°26'0 0.0
2015-Mar-29 02:33N 36°09' W 005°26'0 0.0
2015-Mar-29 01:33N 36°09' W 005°26'4 3.9
2015-Mar-29 00:33N 36°05' W 005°24'0 0.1
2015-Mar-28 23:33N 36°05' W 005°24'0 0.0
2015-Mar-28 22:33N 36°05' W 005°24'2 2.3
2015-Mar-28 21:33N 36°07' W 005°25'2 1.6
2015-Mar-28 20:33N 36°09' W 005°26'0 0.0
2015-Mar-28 19:33N 36°09' W 005°26'0 0.0
2015-Mar-28 18:33N 36°09' W 005°26'0 0.0
2015-Mar-28 17:33N 36°09' W 005°26'0 0.0
2015-Mar-28 16:33N 36°09' W 005°26'0 0.0
2015-Mar-28 15:33N 36°09' W 005°26'0 0.0
2015-Mar-28 14:19N 36°09' W 005°26'0 0.0
2015-Mar-28 13:33N 36°09' W 005°26'0 0.0
2015-Mar-28 12:26N 36°09' W 005°26'0 0.1
2015-Mar-28 08:13N 36°09' W 005°26'0 0.2
2015-Mar-28 07:33N 36°09' W 005°26'0 0.0
2015-Mar-28 06:33N 36°09' W 005°26'0 0.0
2015-Mar-28 05:33N 36°09' W 005°26'0 0.0
2015-Mar-28 04:33N 36°09' W 005°26'0 0.0
2015-Mar-28 03:33N 36°09' W 005°26'0 0.0
2015-Mar-28 02:33N 36°09' W 005°26'3 2.5
2015-Mar-28 01:31N 36°11' W 005°24'1 0.1
2015-Mar-27 16:30N 36°10' W 005°24'3 2.9
2015-Mar-27 15:33N 36°08' W 005°26'0 0.0
2015-Mar-27 14:33N 36°08' W 005°26'0 0.0
2015-Mar-27 13:33N 36°08' W 005°26'0 0.4
2015-Mar-27 12:33N 36°09' W 005°26'0 0.0
2015-Mar-27 11:28N 36°09' W 005°26'0 0.0
2015-Mar-27 10:32N 36°09' W 005°26'0 0.0
2015-Mar-27 09:33N 36°09' W 005°26'0 0.0
2015-Mar-27 08:31N 36°09' W 005°26'0 0.0
2015-Mar-27 07:28N 36°09' W 005°26'0 0.0
2015-Mar-27 06:33N 36°09' W 005°26'0 0.0
2015-Mar-27 03:31N 36°09' W 005°26'0 0.0
2015-Mar-27 01:28N 36°09' W 005°26'0 0.2
2015-Mar-27 00:22N 36°09' W 005°26'0 0.0
2015-Mar-26 23:14N 36°09' W 005°26'0 0.0
2015-Mar-26 22:33N 36°09' W 005°26'0 0.0
2015-Mar-26 21:13N 36°09' W 005°26'0 0.0
2015-Mar-26 20:15N 36°09' W 005°26'0 0.0
2015-Mar-26 19:19N 36°09' W 005°26'0 0.0
2015-Mar-26 18:32N 36°09' W 005°26'0 0.0
2015-Mar-26 17:32N 36°09' W 005°26'0 0.0
2015-Mar-26 16:33N 36°09' W 005°26'0 0.0
2015-Mar-26 15:32N 36°09' W 005°26'0 0.0
2015-Mar-26 14:32N 36°09' W 005°26'0 0.0
2015-Mar-26 13:21N 36°09' W 005°26'0 0.0
2015-Mar-26 12:31N 36°09' W 005°26'0 0.0
2015-Mar-26 11:24N 36°09' W 005°26'0 0.0
2015-Mar-26 10:31N 36°09' W 005°26'3 0.1
2015-Mar-24 11:25N 36°11' W 005°24'0 0.0
2015-Mar-24 10:05N 36°11' W 005°24'0 0.0
2015-Mar-24 09:33N 36°11' W 005°24'0 0.0
2015-Mar-24 08:31N 36°11' W 005°24'0 0.0
2015-Mar-24 07:09N 36°11' W 005°24'0 0.0
2015-Mar-24 06:19N 36°11' W 005°24'0 0.0
2015-Mar-24 05:31N 36°11' W 005°24'0 0.0
2015-Mar-24 04:32N 36°11' W 005°24'0 0.0
2015-Mar-24 03:33N 36°11' W 005°24'0 0.0
2015-Mar-24 02:33N 36°11' W 005°24'0 0.0
2015-Mar-24 01:33N 36°11' W 005°24'0 0.0
2015-Mar-24 00:30N 36°11' W 005°24'0 0.0
2015-Mar-23 23:33N 36°11' W 005°24'0 0.0
2015-Mar-23 22:33N 36°11' W 005°24'1 0.5
2015-Mar-23 21:31N 36°10' W 005°23'0 0.0
2015-Mar-23 20:33N 36°10' W 005°23'3 2.3
2015-Mar-23 19:19N 36°09' W 005°26'0 0.0
2015-Mar-23 15:27N 36°09' W 005°26'0 0.0
2015-Mar-23 14:22N 36°09' W 005°26'0 0.0
2015-Mar-23 13:16N 36°09' W 005°26'0 0.0
2015-Mar-23 12:33N 36°09' W 005°26'0 0.0
2015-Mar-23 11:32N 36°09' W 005°26'0 0.0
2015-Mar-23 09:18N 36°09' W 005°26'0 0.0
2015-Mar-23 08:31N 36°09' W 005°26'0 0.2
2015-Mar-23 07:16N 36°09' W 005°26'0 0.0
2015-Mar-22 23:29N 36°09' W 005°26'0 0.0
2015-Mar-22 22:11N 36°09' W 005°26'0 0.0
2015-Mar-22 20:33N 36°09' W 005°26'0 0.0
2015-Mar-22 19:20N 36°09' W 005°26'0 0.0
2015-Mar-22 18:33N 36°09' W 005°26'0 0.0
2015-Mar-22 17:33N 36°09' W 005°26'0 0.0
2015-Mar-22 16:29N 36°09' W 005°26'0 0.0
2015-Mar-22 15:33N 36°09' W 005°26'1 0.3
2015-Mar-22 14:07N 36°08' W 005°26'0 0.0
2015-Mar-22 13:28N 36°08' W 005°26'0 0.0
2015-Mar-22 12:18N 36°08' W 005°26'0 0.0
2015-Mar-22 11:33N 36°08' W 005°26'1 0.5
2015-Mar-22 10:33N 36°09' W 005°26'0 0.0
2015-Mar-22 09:33N 36°09' W 005°26'0 0.0
2015-Mar-22 08:33N 36°09' W 005°26'0 0.0
2015-Mar-22 07:33N 36°09' W 005°26'0 0.0
2015-Mar-22 06:33N 36°09' W 005°26'0 0.0
2015-Mar-22 05:33N 36°09' W 005°26'0 0.0
2015-Mar-22 04:33N 36°09' W 005°26'0 0.0
2015-Mar-22 03:33N 36°09' W 005°26'0 0.0
2015-Mar-22 02:33N 36°09' W 005°26'0 0.0
2015-Mar-22 00:33N 36°09' W 005°26'0 0.0
2015-Mar-21 23:31N 36°09' W 005°26'0 0.0
2015-Mar-21 22:22N 36°09' W 005°26'0 0.0
2015-Mar-21 21:33N 36°09' W 005°26'  
Track history (hours):
 
Tides and Currents Weather Stations Pressure Air Temp Water Temp Dewpoint Dewpoint Depression Visibility Wind Speed Wind Dir Waves Ship Positions

Spabunker 51

Last reported at 2015-Mar-31 21:33 UTC. Time now 2015-Mar-31 22:00 UTC.
Position N 36°09' W 005°26'.

Length 84 m; draft 5.8 m.

Type: Ship (hazmat cat A). MMSI: 224322240.

Date/timePositionNaut miles runAvg speedWind from/ knotsBaromVisibWave heightAir tempDewpointWater temp
2015-Mar-31 21:33N 36°09' W 005°26'0 0.0
2015-Mar-31 20:33N 36°09' W 005°26'0 0.0
2015-Mar-31 19:33N 36°09' W 005°26'0 0.0
2015-Mar-31 18:33N 36°09' W 005°26'0 0.0
2015-Mar-31 17:33N 36°09' W 005°26'0 0.3
2015-Mar-31 16:33N 36°09' W 005°26'0 0.0
2015-Mar-31 15:30N 36°09' W 005°26'0 0.0
2015-Mar-31 14:26N 36°09' W 005°26'2 2.2
2015-Mar-31 13:19N 36°11' W 005°24'0 0.0
2015-Mar-31 10:22N 36°11' W 005°24'0 0.0
2015-Mar-31 08:16N 36°11' W 005°24'0 0.0
2015-Mar-31 07:32N 36°11' W 005°24'0 0.0
2015-Mar-31 06:33N 36°11' W 005°24'0 0.0
2015-Mar-31 05:33N 36°11' W 005°24'3 3.1
2015-Mar-31 04:33N 36°08' W 005°26'0 0.0
2015-Mar-31 03:33N 36°08' W 005°26'0 0.0
2015-Mar-31 02:33N 36°08' W 005°26'0 0.0
2015-Mar-31 01:27N 36°08' W 005°26'0 0.0
2015-Mar-31 00:33N 36°08' W 005°26'0 0.0
2015-Mar-30 23:33N 36°08' W 005°26'0 0.0
2015-Mar-30 22:33N 36°08' W 005°26'0 0.0
2015-Mar-30 21:33N 36°08' W 005°26'0 0.0
2015-Mar-30 20:33N 36°08' W 005°26'0 0.0
2015-Mar-30 19:33N 36°08' W 005°26'0 0.0
2015-Mar-30 18:33N 36°08' W 005°26'0 0.0
2015-Mar-30 17:33N 36°08' W 005°26'0 0.0
2015-Mar-30 16:33N 36°08' W 005°26'0 0.0
2015-Mar-30 15:32N 36°08' W 005°26'0 0.0
2015-Mar-30 14:33N 36°08' W 005°26'0 0.0
2015-Mar-30 13:33N 36°08' W 005°26'1 0.7
2015-Mar-30 12:33N 36°09' W 005°26'0 0.0
2015-Mar-30 11:33N 36°09' W 005°26'0 0.0
2015-Mar-30 08:33N 36°09' W 005°26'0 0.0
2015-Mar-30 07:33N 36°09' W 005°26'0 0.0
2015-Mar-30 06:33N 36°09' W 005°26'1 1.3
2015-Mar-30 05:31N 36°10' W 005°25'1 0.2
2015-Mar-29 23:28N 36°11' W 005°24'2 2.5
2015-Mar-29 22:30N 36°09' W 005°26'1 0.5
2015-Mar-29 21:33N 36°09' W 005°26'0 0.0
2015-Mar-29 20:33N 36°09' W 005°26'0 0.0
2015-Mar-29 19:28N 36°09' W 005°26'0 0.0
2015-Mar-29 18:33N 36°09' W 005°26'0 0.0
2015-Mar-29 17:31N 36°09' W 005°26'0 0.0
2015-Mar-29 16:33N 36°09' W 005°26'0 0.0
2015-Mar-29 15:32N 36°09' W 005°26'0 0.0
2015-Mar-29 14:29N 36°09' W 005°26'0 0.0
2015-Mar-29 13:33N 36°09' W 005°26'0 0.0
2015-Mar-29 12:33N 36°09' W 005°26'0 0.1
2015-Mar-29 11:33N 36°09' W 005°26'0 0.1
2015-Mar-29 09:10N 36°09' W 005°26'0 0.0
2015-Mar-29 08:26N 36°09' W 005°26'0 0.0
2015-Mar-29 07:16N 36°09' W 005°26'0 0.0
2015-Mar-29 06:33N 36°09' W 005°26'0 0.0
2015-Mar-29 05:22N 36°09' W 005°26'0 0.0
2015-Mar-29 04:33N 36°09' W 005°26'0 0.0
2015-Mar-29 03:33N 36°09' W 005°26'0 0.0
2015-Mar-29 02:33N 36°09' W 005°26'0 0.0
2015-Mar-29 01:33N 36°09' W 005°26'4 3.9
2015-Mar-29 00:33N 36°05' W 005°24'0 0.1
2015-Mar-28 23:33N 36°05' W 005°24'0 0.0
2015-Mar-28 22:33N 36°05' W 005°24'2 2.3
2015-Mar-28 21:33N 36°07' W 005°25'2 1.6
2015-Mar-28 20:33N 36°09' W 005°26'0 0.0
2015-Mar-28 19:33N 36°09' W 005°26'0 0.0
2015-Mar-28 18:33N 36°09' W 005°26'0 0.0
2015-Mar-28 17:33N 36°09' W 005°26'0 0.0
2015-Mar-28 16:33N 36°09' W 005°26'0 0.0
2015-Mar-28 15:33N 36°09' W 005°26'0 0.0
2015-Mar-28 14:19N 36°09' W 005°26'0 0.0
2015-Mar-28 13:33N 36°09' W 005°26'0 0.0
2015-Mar-28 12:26N 36°09' W 005°26'0 0.1
2015-Mar-28 08:13N 36°09' W 005°26'0 0.2
2015-Mar-28 07:33N 36°09' W 005°26'0 0.0
2015-Mar-28 06:33N 36°09' W 005°26'0 0.0
2015-Mar-28 05:33N 36°09' W 005°26'0 0.0
2015-Mar-28 04:33N 36°09' W 005°26'0 0.0
2015-Mar-28 03:33N 36°09' W 005°26'0 0.0
2015-Mar-28 02:33N 36°09' W 005°26'3 2.5
2015-Mar-28 01:31N 36°11' W 005°24'1 0.1
2015-Mar-27 16:30N 36°10' W 005°24'3 2.9
2015-Mar-27 15:33N 36°08' W 005°26'0 0.0
2015-Mar-27 14:33N 36°08' W 005°26'0 0.0
2015-Mar-27 13:33N 36°08' W 005°26'0 0.4
2015-Mar-27 12:33N 36°09' W 005°26'0 0.0
2015-Mar-27 11:28N 36°09' W 005°26'0 0.0
2015-Mar-27 10:32N 36°09' W 005°26'0 0.0
2015-Mar-27 09:33N 36°09' W 005°26'0 0.0
2015-Mar-27 08:31N 36°09' W 005°26'0 0.0
2015-Mar-27 07:28N 36°09' W 005°26'0 0.0
2015-Mar-27 06:33N 36°09' W 005°26'0 0.0
2015-Mar-27 03:31N 36°09' W 005°26'0 0.0
2015-Mar-27 01:28N 36°09' W 005°26'0 0.2
2015-Mar-27 00:22N 36°09' W 005°26'0 0.0
2015-Mar-26 23:14N 36°09' W 005°26'0 0.0
2015-Mar-26 22:33N 36°09' W 005°26'0 0.0
2015-Mar-26 21:13N 36°09' W 005°26'0 0.0
2015-Mar-26 20:15N 36°09' W 005°26'0 0.0
2015-Mar-26 19:19N 36°09' W 005°26'0 0.0
2015-Mar-26 18:32N 36°09' W 005°26'0 0.0
2015-Mar-26 17:32N 36°09' W 005°26'0 0.0
2015-Mar-26 16:33N 36°09' W 005°26'0 0.0
2015-Mar-26 15:32N 36°09' W 005°26'0 0.0
2015-Mar-26 14:32N 36°09' W 005°26'0 0.0
2015-Mar-26 13:21N 36°09' W 005°26'0 0.0
2015-Mar-26 12:31N 36°09' W 005°26'0 0.0
2015-Mar-26 11:24N 36°09' W 005°26'0 0.0
2015-Mar-26 10:31N 36°09' W 005°26'3 0.1
2015-Mar-24 11:25N 36°11' W 005°24'0 0.0
2015-Mar-24 10:05N 36°11' W 005°24'0 0.0
2015-Mar-24 09:33N 36°11' W 005°24'0 0.0
2015-Mar-24 08:31N 36°11' W 005°24'0 0.0
2015-Mar-24 07:09N 36°11' W 005°24'0 0.0
2015-Mar-24 06:19N 36°11' W 005°24'0 0.0
2015-Mar-24 05:31N 36°11' W 005°24'0 0.0
2015-Mar-24 04:32N 36°11' W 005°24'0 0.0
2015-Mar-24 03:33N 36°11' W 005°24'0 0.0
2015-Mar-24 02:33N 36°11' W 005°24'0 0.0
2015-Mar-24 01:33N 36°11' W 005°24'0 0.0
2015-Mar-24 00:30N 36°11' W 005°24'0 0.0
2015-Mar-23 23:33N 36°11' W 005°24'0 0.0
2015-Mar-23 22:33N 36°11' W 005°24'1 0.5
2015-Mar-23 21:31N 36°10' W 005°23'0 0.0
2015-Mar-23 20:33N 36°10' W 005°23'3 2.3
2015-Mar-23 19:19N 36°09' W 005°26'0 0.0
2015-Mar-23 15:27N 36°09' W 005°26'0 0.0
2015-Mar-23 14:22N 36°09' W 005°26'0 0.0
2015-Mar-23 13:16N 36°09' W 005°26'0 0.0
2015-Mar-23 12:33N 36°09' W 005°26'0 0.0
2015-Mar-23 11:32N 36°09' W 005°26'0 0.0
2015-Mar-23 09:18N 36°09' W 005°26'0 0.0
2015-Mar-23 08:31N 36°09' W 005°26'0 0.2
2015-Mar-23 07:16N 36°09' W 005°26'0 0.0
2015-Mar-22 23:29N 36°09' W 005°26'0 0.0
2015-Mar-22 22:11N 36°09' W 005°26'0 0.0
2015-Mar-22 20:33N 36°09' W 005°26'0 0.0
2015-Mar-22 19:20N 36°09' W 005°26'0 0.0
2015-Mar-22 18:33N 36°09' W 005°26'0 0.0
2015-Mar-22 17:33N 36°09' W 005°26'0 0.0
2015-Mar-22 16:29N 36°09' W 005°26'0 0.0
2015-Mar-22 15:33N 36°09' W 005°26'1 0.3
2015-Mar-22 14:07N 36°08' W 005°26'0 0.0
2015-Mar-22 13:28N 36°08' W 005°26'0 0.0
2015-Mar-22 12:18N 36°08' W 005°26'0 0.0
2015-Mar-22 11:33N 36°08' W 005°26'1 0.5
2015-Mar-22 10:33N 36°09' W 005°26'0 0.0
2015-Mar-22 09:33N 36°09' W 005°26'0 0.0
2015-Mar-22 08:33N 36°09' W 005°26'0 0.0
2015-Mar-22 07:33N 36°09' W 005°26'0 0.0
2015-Mar-22 06:33N 36°09' W 005°26'0 0.0
2015-Mar-22 05:33N 36°09' W 005°26'0 0.0
2015-Mar-22 04:33N 36°09' W 005°26'0 0.0
2015-Mar-22 03:33N 36°09' W 005°26'0 0.0
2015-Mar-22 02:33N 36°09' W 005°26'0 0.0
2015-Mar-22 00:33N 36°09' W 005°26'0 0.0
2015-Mar-21 23:31N 36°09' W 005°26'0 0.0
2015-Mar-21 22:22N 36°09' W 005°26'0 0.0
2015-Mar-21 21:33N 36°09' W 005°26'  

Dump ship's entire track history